createdAt,value
2022-10-11T00:01:17.829Z,102605.38
2022-10-11T00:03:44.267Z,102601.97
2022-10-11T00:06:10.622Z,102604.25
2022-10-11T00:08:39.080Z,102598.88
2022-10-11T00:11:07.292Z,102603.50
2022-10-11T00:13:33.822Z,102607.31
2022-10-11T00:16:00.425Z,102611.97
2022-10-11T00:18:27.023Z,102607.72
2022-10-11T00:21:08.309Z,102605.66
2022-10-11T00:23:35.201Z,102605.03
2022-10-11T00:26:04.892Z,102610.47
2022-10-11T00:28:31.759Z,102609.44
2022-10-11T00:30:58.245Z,102612.59
2022-10-11T00:33:24.727Z,102609.69
2022-10-11T00:35:51.175Z,102609.78
2022-10-11T00:38:18.139Z,102622.56
2022-10-11T00:40:45.816Z,102619.28
2022-10-11T00:43:17.810Z,102617.31
2022-10-11T00:46:01.444Z,102612.09
2022-10-11T00:48:42.130Z,102627.38
2022-10-11T00:51:32.672Z,102621.09
2022-10-11T00:54:01.303Z,102626.44
2022-10-11T00:56:33.805Z,102630.84
2022-10-11T00:59:04.258Z,102627.63
2022-10-11T01:01:31.043Z,102631.03
2022-10-11T01:03:57.962Z,102639.56
2022-10-11T01:06:24.666Z,102639.56
2022-10-11T01:08:52.772Z,102644.63
2022-10-11T01:11:23.359Z,102648.88
2022-10-11T01:14:08.656Z,102640.28
2022-10-11T01:16:39.235Z,102645.44
2022-10-11T01:19:33.661Z,102649.59
2022-10-11T01:22:18.740Z,102652.06
2022-10-11T01:25:23.754Z,102652.69
2022-10-11T01:28:25.625Z,102653.50
2022-10-11T01:30:54.851Z,102646.72
2022-10-11T01:33:30.291Z,102655.34
2022-10-11T01:36:27.573Z,102653.78
2022-10-11T01:39:11.354Z,102654.53
2022-10-11T01:41:41.203Z,102656.16
2022-10-11T01:44:09.278Z,102657.03
2022-10-11T01:46:36.671Z,102659.50
2022-10-11T01:49:04.720Z,102658.66
2022-10-11T01:51:34.532Z,102657.84
2022-10-11T01:54:03.931Z,102659.78
2022-10-11T01:57:13.369Z,102655.53
2022-10-11T02:00:15.175Z,102659.69
2022-10-11T02:03:05.095Z,102661.41
2022-10-11T02:05:57.687Z,102672.66
2022-10-11T02:08:27.423Z,102678.88
2022-10-11T02:11:11.620Z,102668.50
2022-10-11T02:13:46.305Z,102666.97
2022-10-11T02:16:18.718Z,102664.78
2022-10-11T02:18:49.974Z,102663.47
2022-10-11T02:21:19.372Z,102670.56
2022-10-11T02:23:56.177Z,102665.59
2022-10-11T02:26:24.923Z,102665.69
2022-10-11T02:28:56.639Z,102665.69
2022-10-11T02:31:25.012Z,102663.50
2022-10-11T02:34:05.350Z,102669.94
2022-10-11T02:36:55.312Z,102665.53
2022-10-11T02:39:29.615Z,102675.91
2022-10-11T02:41:59.809Z,102672.34
2022-10-11T02:44:37.653Z,102675.66
2022-10-11T02:47:05.375Z,102673.84
2022-10-11T02:49:32.439Z,102670.31
2022-10-11T02:51:59.180Z,102677.03
2022-10-11T02:54:26.126Z,102674.38
2022-10-11T02:56:52.571Z,102681.25
2022-10-11T02:59:19.139Z,102674.47
2022-10-11T03:01:45.569Z,102682.09
2022-10-11T03:04:12.007Z,102682.72
2022-10-11T03:06:38.369Z,102680.06
2022-10-11T03:09:04.727Z,102685.94
2022-10-11T03:11:31.146Z,102687.59
2022-10-11T03:13:57.479Z,102690.16
2022-10-11T03:16:23.984Z,102686.88
2022-10-11T03:18:51.098Z,102683.16
2022-10-11T03:21:17.443Z,102681.41
2022-10-11T03:23:43.863Z,102680.06
2022-10-11T03:26:10.209Z,102690.53
2022-10-11T03:28:36.646Z,102687.22
2022-10-11T03:31:03.989Z,102689.97
2022-10-11T03:33:30.364Z,102691.72
2022-10-11T03:35:56.734Z,102686.69
2022-10-11T03:38:23.186Z,102694.66
2022-10-11T03:40:49.958Z,102703.38
2022-10-11T03:43:16.547Z,102698.41
2022-10-11T03:45:43.174Z,102700.44
2022-10-11T03:48:10.543Z,102709.25
2022-10-11T03:50:37.594Z,102706.59
2022-10-11T03:53:05.021Z,102709.06
2022-10-11T03:55:31.431Z,102708.16
2022-10-11T03:57:57.862Z,102705.41
2022-10-11T04:00:24.492Z,102720.81
2022-10-11T04:02:50.907Z,102717.34
2022-10-11T04:05:17.296Z,102726.69
2022-10-11T04:07:43.662Z,102719.84
2022-10-11T04:10:10.199Z,102715.50
2022-10-11T04:12:38.294Z,102713.94
2022-10-11T04:15:05.957Z,102721.66
2022-10-11T04:17:32.333Z,102712.38
2022-10-11T04:19:58.683Z,102715.06
2022-10-11T04:22:25.097Z,102720.38
2022-10-11T04:24:52.104Z,102729.00
2022-10-11T04:27:18.533Z,102733.41
2022-10-11T04:29:44.852Z,102730.38
2022-10-11T04:32:11.265Z,102730.53
2022-10-11T04:34:37.983Z,102731.44
2022-10-11T04:37:04.335Z,102737.31
2022-10-11T04:39:30.753Z,102736.59
2022-10-11T04:41:57.086Z,102730.63
2022-10-11T04:44:23.662Z,102739.16
2022-10-11T04:46:50.015Z,102742.38
2022-10-11T04:49:16.339Z,102742.09
2022-10-11T04:51:42.782Z,102737.63
2022-10-11T04:54:09.110Z,102743.59
2022-10-11T04:56:35.511Z,102748.72
2022-10-11T04:59:01.828Z,102747.72
2022-10-11T05:01:28.174Z,102750.88
2022-10-11T05:03:54.686Z,102750.47
2022-10-11T05:06:21.056Z,102754.34
2022-10-11T05:08:47.423Z,102747.19
2022-10-11T05:11:16.274Z,102754.53
2022-10-11T05:13:43.840Z,102758.75
2022-10-11T05:16:11.649Z,102754.47
2022-10-11T05:18:38.954Z,102751.78
2022-10-11T05:21:08.951Z,102752.53
2022-10-11T05:23:36.701Z,102755.09
2022-10-11T05:26:04.192Z,102762.00
2022-10-11T05:28:31.585Z,102762.72
2022-10-11T05:30:58.292Z,102761.81
2022-10-11T05:33:25.245Z,102771.91
2022-10-11T05:35:51.873Z,102768.41
2022-10-11T05:38:19.003Z,102766.66
2022-10-11T05:40:45.430Z,102773.38
2022-10-11T05:43:11.930Z,102777.78
2022-10-11T05:45:39.826Z,102772.56
2022-10-11T05:48:06.541Z,102777.50
2022-10-11T05:50:32.930Z,102771.34
2022-10-11T05:52:59.449Z,102767.78
2022-10-11T05:55:25.926Z,102783.13
2022-10-11T05:57:56.498Z,102779.41
2022-10-11T06:00:24.361Z,102783.56
2022-10-11T06:02:50.768Z,102786.06
2022-10-11T06:05:17.446Z,102787.69
2022-10-11T06:07:44.708Z,102788.63
2022-10-11T06:10:11.245Z,102790.25
2022-10-11T06:12:37.660Z,102786.59
2022-10-11T06:15:05.046Z,102795.59
2022-10-11T06:17:31.612Z,102793.38
2022-10-11T06:19:58.146Z,102792.81
2022-10-11T06:22:24.547Z,102797.22
2022-10-11T06:24:50.884Z,102801.41
2022-10-11T06:27:17.239Z,102802.78
2022-10-11T06:29:43.610Z,102802.84
2022-10-11T06:32:10.052Z,102804.00
2022-10-11T06:34:36.393Z,102807.47
2022-10-11T06:37:02.833Z,102805.25
2022-10-11T06:39:29.227Z,102804.84
2022-10-11T06:41:55.583Z,102817.59
2022-10-11T06:44:22.003Z,102819.16
2022-10-11T06:46:48.497Z,102815.09
2022-10-11T06:49:18.240Z,102810.41
2022-10-11T06:51:47.129Z,102810.44
2022-10-11T06:54:13.592Z,102813.00
2022-10-11T06:56:40.787Z,102821.16
2022-10-11T06:59:07.197Z,102825.03
2022-10-11T07:01:33.635Z,102829.25
2022-10-11T07:04:01.553Z,102835.50
2022-10-11T07:06:31.052Z,102838.69
2022-10-11T07:09:00.210Z,102841.22
2022-10-11T07:11:27.870Z,102839.38
2022-10-11T07:13:59.817Z,102839.81
2022-10-11T07:16:27.771Z,102840.13
2022-10-11T07:19:00.570Z,102845.94
2022-10-11T07:21:29.309Z,102849.94
2022-10-11T07:23:55.762Z,102845.06
2022-10-11T07:26:22.175Z,102847.91
2022-10-11T07:28:48.795Z,102850.69
2022-10-11T07:31:19.826Z,102856.34
2022-10-11T07:33:46.451Z,102847.44
2022-10-11T07:36:13.305Z,102845.06
2022-10-11T07:38:41.002Z,102847.53
2022-10-11T07:41:08.168Z,102847.09
2022-10-11T07:43:35.433Z,102853.00
2022-10-11T07:46:04.662Z,102849.28
2022-10-11T07:48:32.670Z,102848.31
2022-10-11T07:51:25.992Z,102856.47
2022-10-11T07:53:55.693Z,102853.91
2022-10-11T07:56:24.881Z,102857.56
2022-10-11T07:58:53.462Z,102865.56
2022-10-11T08:01:20.346Z,102866.50
2022-10-11T08:03:47.650Z,102865.81
2022-10-11T08:06:17.031Z,102873.72
2022-10-11T08:08:43.384Z,102869.78
2022-10-11T08:11:10.395Z,102876.88
2022-10-11T08:13:36.820Z,102874.59
2022-10-11T08:16:10.215Z,102881.53
2022-10-11T08:18:36.589Z,102881.50
2022-10-11T08:21:08.226Z,102885.19
2022-10-11T08:23:34.703Z,102875.34
2022-10-11T08:26:01.793Z,102886.97
2022-10-11T08:28:28.499Z,102887.34
2022-10-11T08:30:55.220Z,102889.63
2022-10-11T08:33:23.616Z,102888.31
2022-10-11T08:35:52.138Z,102888.41
2022-10-11T08:38:19.494Z,102895.53
2022-10-11T08:40:47.646Z,102901.44
2022-10-11T08:43:35.629Z,102896.75
2022-10-11T08:46:04.700Z,102896.25
2022-10-11T08:48:49.091Z,102900.50
2022-10-11T08:51:24.813Z,102902.75
2022-10-11T08:54:04.683Z,102907.00
2022-10-11T08:56:37.632Z,102909.75
2022-10-11T08:59:28.299Z,102905.91
2022-10-11T09:02:03.182Z,102911.56
2022-10-11T09:04:32.194Z,102903.19
2022-10-11T09:07:25.753Z,102899.50
2022-10-11T09:10:07.314Z,102898.72
2022-10-11T09:12:50.471Z,102899.78
2022-10-11T09:15:26.065Z,102904.72
2022-10-11T09:18:04.160Z,102897.59
2022-10-11T09:20:51.800Z,102904.03
2022-10-11T09:23:39.536Z,102902.94
2022-10-11T09:26:17.544Z,102898.16
2022-10-11T09:29:14.264Z,102903.63
2022-10-11T09:31:46.018Z,102908.25
2022-10-11T09:34:14.458Z,102904.81
2022-10-11T09:36:55.849Z,102911.13
2022-10-11T09:39:33.123Z,102904.56
2022-10-11T09:42:10.889Z,102908.25
2022-10-11T09:44:41.553Z,102910.72
2022-10-11T09:47:16.227Z,102901.06
2022-10-11T09:50:03.693Z,102904.44
2022-10-11T09:52:30.060Z,102908.13
2022-10-11T09:55:00.389Z,102910.00
2022-10-11T09:57:33.025Z,102902.97
2022-10-11T10:00:02.576Z,102911.03
2022-10-11T10:02:38.547Z,102903.81
2022-10-11T10:05:10.976Z,102901.84
2022-10-11T10:07:40.909Z,102900.16
2022-10-11T10:10:40.264Z,102902.69
2022-10-11T10:13:21.012Z,102900.81
2022-10-11T10:15:50.815Z,102900.28
2022-10-11T10:18:34.347Z,102903.16
2022-10-11T10:21:01.832Z,102905.75
2022-10-11T10:23:36.696Z,102903.69
2022-10-11T10:26:24.904Z,102898.38
2022-10-11T10:29:01.298Z,102903.03
2022-10-11T10:31:55.321Z,102898.06
2022-10-11T10:34:26.251Z,102901.31
2022-10-11T10:37:02.213Z,102897.38
2022-10-11T10:39:44.508Z,102886.00
2022-10-11T10:42:17.190Z,102891.63
2022-10-11T10:44:52.363Z,102889.72
2022-10-11T10:47:21.814Z,102893.81
2022-10-11T10:50:02.441Z,102898.63
2022-10-11T10:52:43.537Z,102898.75
2022-10-11T10:55:31.382Z,102890.59
2022-10-11T10:58:15.071Z,102882.44
2022-10-11T11:00:50.300Z,102888.00
2022-10-11T11:03:46.326Z,102887.00
2022-10-11T11:06:34.152Z,102883.56
2022-10-11T11:09:21.175Z,102889.00
2022-10-11T11:12:05.470Z,102879.97
2022-10-11T11:14:52.119Z,102876.56
2022-10-11T11:17:43.527Z,102878.34
2022-10-11T11:20:12.813Z,102880.13
2022-10-11T11:23:22.031Z,102869.47
2022-10-11T11:26:31.323Z,102871.91
2022-10-11T11:29:13.475Z,102869.81
2022-10-11T11:31:56.682Z,102868.50
2022-10-11T11:34:26.647Z,102863.59
2022-10-11T11:37:00.199Z,102865.09
2022-10-11T11:39:30.650Z,102862.81
2022-10-11T11:42:07.726Z,102861.81
2022-10-11T11:44:40.184Z,102863.66
2022-10-11T11:47:19.867Z,102866.44
2022-10-11T11:49:53.295Z,102865.59
2022-10-11T11:52:36.142Z,102861.03
2022-10-11T11:55:14.211Z,102862.00
2022-10-11T11:58:03.280Z,102861.19
2022-10-11T12:01:10.080Z,102862.00
2022-10-11T12:03:47.334Z,102852.31
2022-10-11T12:06:13.845Z,102854.94
2022-10-11T12:08:46.263Z,102847.59
2022-10-11T12:11:25.451Z,102849.38
2022-10-11T12:13:53.933Z,102851.03
2022-10-11T12:16:22.044Z,102845.16
2022-10-11T12:18:55.933Z,102847.25
2022-10-11T12:21:25.216Z,102839.25
2022-10-11T12:24:00.496Z,102834.97
2022-10-11T12:26:47.680Z,102827.88
2022-10-11T12:29:17.207Z,102833.63
2022-10-11T12:31:46.326Z,102820.53
2022-10-11T12:34:37.682Z,102819.25
2022-10-11T12:37:19.592Z,102817.16
2022-10-11T12:40:27.430Z,102812.72
2022-10-11T12:43:12.037Z,102822.88
2022-10-11T12:45:38.573Z,102813.38
2022-10-11T12:48:22.674Z,102821.75
2022-10-11T12:51:02.815Z,102822.88
2022-10-11T12:54:25.611Z,102815.38
2022-10-11T12:56:57.562Z,102818.63
2022-10-11T12:59:24.538Z,102815.34
2022-10-11T13:01:54.566Z,102817.13
2022-10-11T13:04:25.284Z,102811.09
2022-10-11T13:07:01.081Z,102811.91
2022-10-11T13:09:39.123Z,102815.00
2022-10-11T13:12:09.158Z,102812.03
2022-10-11T13:14:42.342Z,102806.03
2022-10-11T13:17:19.468Z,102804.72
2022-10-11T13:19:46.149Z,102806.50
2022-10-11T13:22:23.170Z,102802.56
2022-10-11T13:24:49.684Z,102797.97
2022-10-11T13:27:20.664Z,102808.81
2022-10-11T13:29:49.089Z,102802.25
2022-10-11T13:32:24.952Z,102803.28
2022-10-11T13:35:01.590Z,102798.00
2022-10-11T13:37:29.961Z,102801.94
2022-10-11T13:39:57.578Z,102804.25
2022-10-11T13:42:29.610Z,102799.19
2022-10-11T13:44:56.320Z,102798.69
2022-10-11T13:47:27.135Z,102793.63
2022-10-11T13:50:15.474Z,102787.22
2022-10-11T13:52:57.213Z,102788.53
2022-10-11T13:55:30.404Z,102791.47
2022-10-11T13:57:58.524Z,102789.69
2022-10-11T14:00:34.904Z,102789.69
2022-10-11T14:03:22.220Z,102786.25
2022-10-11T14:05:55.704Z,102792.28
2022-10-11T14:08:25.846Z,102789.50
2022-10-11T14:10:56.725Z,102790.84
2022-10-11T14:13:31.995Z,102782.16
2022-10-11T14:16:18.630Z,102781.47
2022-10-11T14:18:50.774Z,102778.84
2022-10-11T14:21:23.300Z,102777.72
2022-10-11T14:24:02.095Z,102773.75
2022-10-11T14:26:33.734Z,102775.69
2022-10-11T14:29:04.485Z,102770.63
2022-10-11T14:31:31.168Z,102773.72
2022-10-11T14:33:58.083Z,102767.97
2022-10-11T14:36:26.013Z,102770.06
2022-10-11T14:38:52.825Z,102771.72
2022-10-11T14:41:19.535Z,102772.50
2022-10-11T14:43:45.943Z,102774.63
2022-10-11T14:46:24.934Z,102774.28
2022-10-11T14:48:56.602Z,102770.38
2022-10-11T14:51:29.914Z,102770.88
2022-10-11T14:53:57.691Z,102768.59
2022-10-11T14:56:24.302Z,102766.47
2022-10-11T14:58:50.664Z,102774.97
2022-10-11T15:01:17.514Z,102767.44
2022-10-11T15:03:44.038Z,102774.34
2022-10-11T15:06:36.112Z,102775.00
2022-10-11T15:09:03.425Z,102769.75
2022-10-11T15:11:29.772Z,102770.44
2022-10-11T15:13:56.157Z,102762.06
2022-10-11T15:16:23.102Z,102765.84
2022-10-11T15:18:52.879Z,102763.25
2022-10-11T15:21:22.879Z,102764.25
2022-10-11T15:23:50.748Z,102764.84
2022-10-11T15:26:21.336Z,102761.88
2022-10-11T15:28:49.291Z,102758.91
2022-10-11T15:31:15.811Z,102757.75
2022-10-11T15:33:42.276Z,102744.66
2022-10-11T15:36:14.867Z,102761.69
2022-10-11T15:38:41.873Z,102757.16
2022-10-11T15:41:12.843Z,102753.72
2022-10-11T15:43:40.046Z,102747.50
2022-10-11T15:46:06.729Z,102746.47
2022-10-11T15:48:33.930Z,102757.13
2022-10-11T15:51:00.390Z,102748.47
2022-10-11T15:53:30.957Z,102742.13
2022-10-11T15:56:00.916Z,102742.91
2022-10-11T15:58:36.512Z,102743.25
2022-10-11T16:01:09.782Z,102744.44
2022-10-11T16:03:36.610Z,102741.03
2022-10-11T16:06:05.469Z,102745.47
2022-10-11T16:08:33.823Z,102736.97
2022-10-11T16:11:00.862Z,102742.38
2022-10-11T16:13:27.501Z,102740.59
2022-10-11T16:15:54.041Z,102737.34
2022-10-11T16:18:22.097Z,102736.06
2022-10-11T16:20:51.641Z,102741.28
2022-10-11T16:23:19.873Z,102743.06
2022-10-11T16:25:46.255Z,102742.91
2022-10-11T16:28:12.622Z,102742.75
2022-10-11T16:30:43.108Z,102747.00
2022-10-11T16:33:09.794Z,102743.03
2022-10-11T16:35:36.278Z,102744.13
2022-10-11T16:38:02.678Z,102748.53
2022-10-11T16:40:30.062Z,102746.22
2022-10-11T16:42:56.641Z,102750.09
2022-10-11T16:45:23.406Z,102753.84
2022-10-11T16:47:50.227Z,102758.50
2022-10-11T16:50:16.599Z,102749.97
2022-10-11T16:52:42.976Z,102764.97
2022-10-11T16:55:09.698Z,102769.31
2022-10-11T16:57:39.746Z,102759.13
2022-10-11T17:00:08.999Z,102764.00
2022-10-11T17:02:36.572Z,102761.72
2022-10-11T17:05:03.886Z,102759.13
2022-10-11T17:07:30.720Z,102758.75
2022-10-11T17:09:57.952Z,102757.41
2022-10-11T17:12:24.725Z,102757.03
2022-10-11T17:14:51.397Z,102764.50
2022-10-11T17:17:18.540Z,102760.38
2022-10-11T17:19:47.269Z,102760.75
2022-10-11T17:22:17.470Z,102761.25
2022-10-11T17:24:44.759Z,102759.91
2022-10-11T17:27:11.275Z,102761.44
2022-10-11T17:29:37.835Z,102763.97
2022-10-11T17:32:04.569Z,102763.72
2022-10-11T17:34:31.072Z,102761.16
2022-10-11T17:36:57.616Z,102759.66
2022-10-11T17:39:25.679Z,102760.97
2022-10-11T17:41:52.922Z,102764.13
2022-10-11T17:44:19.702Z,102767.44
2022-10-11T17:46:46.605Z,102764.44
2022-10-11T17:49:13.902Z,102766.50
2022-10-11T17:51:41.079Z,102761.03
2022-10-11T17:54:12.254Z,102762.28
2022-10-11T17:56:40.240Z,102770.50
2022-10-11T17:59:07.686Z,102767.50
2022-10-11T18:01:34.296Z,102767.91
2022-10-11T18:04:03.420Z,102768.34
2022-10-11T18:06:31.997Z,102768.50
2022-10-11T18:09:02.979Z,102767.53
2022-10-11T18:11:30.272Z,102768.19
2022-10-11T18:13:56.748Z,102764.78
2022-10-11T18:16:28.631Z,102770.78
2022-10-11T18:18:57.211Z,102766.53
2022-10-11T18:21:28.675Z,102768.31
2022-10-11T18:24:02.572Z,102776.66
2022-10-11T18:26:30.711Z,102778.00
2022-10-11T18:28:57.551Z,102772.34
2022-10-11T18:31:26.679Z,102765.63
2022-10-11T18:34:03.889Z,102770.28
2022-10-11T18:36:31.532Z,102779.44
2022-10-11T18:39:03.813Z,102775.03
2022-10-11T18:41:32.102Z,102776.34
2022-10-11T18:44:01.704Z,102772.25
2022-10-11T18:46:28.393Z,102772.66
2022-10-11T18:48:57.089Z,102772.22
2022-10-11T18:51:33.030Z,102766.47
2022-10-11T18:53:59.958Z,102759.88
2022-10-11T18:56:27.642Z,102763.00
2022-10-11T18:58:55.942Z,102756.56
2022-10-11T19:01:38.205Z,102764.47
2022-10-11T19:04:07.120Z,102766.34
2022-10-11T19:06:36.700Z,102765.78
2022-10-11T19:09:17.812Z,102762.91
2022-10-11T19:11:45.199Z,102763.53
2022-10-11T19:14:14.710Z,102759.13
2022-10-11T19:16:46.156Z,102759.63
2022-10-11T19:19:12.905Z,102762.59
2022-10-11T19:21:39.658Z,102761.19
2022-10-11T19:24:06.390Z,102756.53
2022-10-11T19:26:36.833Z,102756.34
2022-10-11T19:29:09.955Z,102762.28
2022-10-11T19:31:42.451Z,102757.69
2022-10-11T19:34:10.181Z,102759.84
2022-10-11T19:36:37.148Z,102759.53
2022-10-11T19:39:04.986Z,102754.81
2022-10-11T19:41:32.400Z,102755.31
2022-10-11T19:43:58.994Z,102760.03
2022-10-11T19:46:49.893Z,102757.25
2022-10-11T19:49:15.735Z,102752.91
2022-10-11T19:51:42.073Z,102747.47
2022-10-11T19:54:11.675Z,102752.31
2022-10-11T19:56:38.131Z,102744.91
2022-10-11T19:59:06.296Z,102740.06
2022-10-11T20:01:34.232Z,102741.28
2022-10-11T20:04:06.701Z,102751.97
2022-10-11T20:06:38.387Z,102740.81
2022-10-11T20:09:27.923Z,102736.78
2022-10-11T20:11:53.383Z,102749.97
2022-10-11T20:14:20.550Z,102746.69
2022-10-11T20:16:49.974Z,102747.03
2022-10-11T20:19:16.574Z,102745.63
2022-10-11T20:21:43.894Z,102757.16
2022-10-11T20:24:10.342Z,102753.63
2022-10-11T20:26:36.763Z,102761.28
2022-10-11T20:29:03.331Z,102752.53
2022-10-11T20:31:32.800Z,102760.66
2022-10-11T20:34:01.991Z,102752.06
2022-10-11T20:36:30.103Z,102758.16
2022-10-11T20:38:58.318Z,102758.91
2022-10-11T20:41:34.245Z,102759.94
2022-10-11T20:44:02.103Z,102753.84
2022-10-11T20:46:31.448Z,102758.28
2022-10-11T20:49:03.452Z,102758.16
2022-10-11T20:51:31.327Z,102759.31
2022-10-11T20:53:58.575Z,102761.78
2022-10-11T20:56:25.019Z,102766.34
2022-10-11T20:58:53.538Z,102758.09
2022-10-11T21:01:22.790Z,102761.03
2022-10-11T21:03:50.290Z,102759.00
2022-10-11T21:06:16.633Z,102752.63
2022-10-11T21:08:43.016Z,102761.75
2022-10-11T21:11:10.486Z,102756.09
2022-10-11T21:13:37.375Z,102759.00
2022-10-11T21:16:10.795Z,102756.53
2022-10-11T21:18:37.770Z,102756.25
2022-10-11T21:21:09.373Z,102754.13
2022-10-11T21:23:35.835Z,102757.75
2022-10-11T21:26:11.264Z,102758.78
2022-10-11T21:28:38.645Z,102750.56
2022-10-11T21:31:10.553Z,102753.34
2022-10-11T21:33:38.120Z,102761.31
2022-10-11T21:36:09.556Z,102754.59
2022-10-11T21:38:36.238Z,102755.97
2022-10-11T21:41:07.465Z,102760.41
2022-10-11T21:43:35.661Z,102764.53
2022-10-11T21:46:20.017Z,102758.44
2022-10-11T21:48:47.266Z,102757.28
2022-10-11T21:51:15.529Z,102758.13
2022-10-11T21:53:41.984Z,102754.47
2022-10-11T21:56:08.846Z,102762.00
2022-10-11T21:58:35.270Z,102764.38
2022-10-11T22:01:01.628Z,102762.28
2022-10-11T22:03:28.224Z,102763.75
2022-10-11T22:05:54.711Z,102767.63
2022-10-11T22:08:21.228Z,102761.31
2022-10-11T22:10:56.411Z,102763.69
2022-10-11T22:13:24.254Z,102757.69
2022-10-11T22:15:50.868Z,102760.25
2022-10-11T22:18:17.383Z,102756.88
2022-10-11T22:20:43.972Z,102756.66
2022-10-11T22:23:11.496Z,102750.44
2022-10-11T22:25:38.994Z,102756.44
2022-10-11T22:28:06.619Z,102756.31
2022-10-11T22:30:33.630Z,102755.25
2022-10-11T22:32:59.970Z,102755.03
2022-10-11T22:35:26.613Z,102751.41
2022-10-11T22:37:53.195Z,102747.91
2022-10-11T22:40:20.475Z,102752.34
2022-10-11T22:42:46.918Z,102755.16
2022-10-11T22:45:13.283Z,102753.31
2022-10-11T22:47:39.628Z,102749.88
2022-10-11T22:50:06.178Z,102739.53
2022-10-11T22:52:32.564Z,102753.41
2022-10-11T22:54:58.974Z,102746.47
2022-10-11T22:57:25.343Z,102744.47
2022-10-11T22:59:51.659Z,102755.66
2022-10-11T23:02:18.006Z,102746.97
2022-10-11T23:04:44.363Z,102746.75
2022-10-11T23:07:10.711Z,102738.16
2022-10-11T23:09:37.031Z,102744.25
2022-10-11T23:12:03.522Z,102747.44
2022-10-11T23:14:29.862Z,102743.13
2022-10-11T23:16:56.187Z,102737.22
2022-10-11T23:19:22.524Z,102738.16
2022-10-11T23:21:48.876Z,102737.34
2022-10-11T23:24:15.216Z,102729.72
2022-10-11T23:26:41.560Z,102730.63
2022-10-11T23:29:07.975Z,102726.50
2022-10-11T23:31:34.481Z,102723.94
2022-10-11T23:34:00.806Z,102727.69
2022-10-11T23:36:27.224Z,102718.38
2022-10-11T23:38:56.055Z,102716.75
2022-10-11T23:41:24.349Z,102727.91
2022-10-11T23:43:50.872Z,102722.50
2022-10-11T23:46:17.264Z,102724.41
2022-10-11T23:48:43.653Z,102722.03
2022-10-11T23:51:10.238Z,102725.66
2022-10-11T23:53:36.990Z,102716.25
2022-10-11T23:56:04.697Z,102727.75
2022-10-11T23:58:31.335Z,102730.66
